createdAt,value
2023-02-11T00:01:00.478Z,1.97
2023-02-11T00:03:27.186Z,1.98
2023-02-11T00:05:58.841Z,1.98
2023-02-11T00:08:25.492Z,1.96
2023-02-11T00:10:57.110Z,1.97
2023-02-11T00:13:25.440Z,2.01
2023-02-11T00:15:52.473Z,1.98
2023-02-11T00:18:19.176Z,2.06
2023-02-11T00:20:45.843Z,2.11
2023-02-11T00:23:13.087Z,2.16
2023-02-11T00:25:41.438Z,2.32
2023-02-11T00:28:09.212Z,2.36
2023-02-11T00:30:36.186Z,2.32
2023-02-11T00:33:03.938Z,2.38
2023-02-11T00:35:30.523Z,2.47
2023-02-11T00:37:57.328Z,2.50
2023-02-11T00:40:24.048Z,2.42
2023-02-11T00:42:50.672Z,2.52
2023-02-11T00:45:17.469Z,2.50
2023-02-11T00:47:44.046Z,2.55
2023-02-11T00:50:10.698Z,2.61
2023-02-11T00:52:37.340Z,2.61
2023-02-11T00:55:04.361Z,2.57
2023-02-11T00:57:31.009Z,2.65
2023-02-11T00:59:57.660Z,2.66
2023-02-11T01:02:24.283Z,2.68
2023-02-11T01:04:50.921Z,2.71
2023-02-11T01:07:17.557Z,2.74
2023-02-11T01:09:44.173Z,2.80
2023-02-11T01:12:10.756Z,2.78
2023-02-11T01:14:37.432Z,2.77
2023-02-11T01:17:06.164Z,2.76
2023-02-11T01:19:32.770Z,2.78
2023-02-11T01:21:59.749Z,2.85
2023-02-11T01:24:26.554Z,2.86
2023-02-11T01:26:53.215Z,2.78
2023-02-11T01:29:19.998Z,2.91
2023-02-11T01:31:46.827Z,2.97
2023-02-11T01:34:13.903Z,2.90
2023-02-11T01:36:40.916Z,2.97
2023-02-11T01:39:08.749Z,3.01
2023-02-11T01:41:35.631Z,3.08
2023-02-11T01:44:32.021Z,3.08
2023-02-11T01:46:58.750Z,3.09
2023-02-11T01:49:30.066Z,3.08
2023-02-11T01:52:10.022Z,3.16
2023-02-11T01:55:02.822Z,3.18
2023-02-11T01:57:32.455Z,3.25
2023-02-11T02:00:08.211Z,3.28
2023-02-11T02:02:43.831Z,3.35
2023-02-11T02:05:22.254Z,3.36
2023-02-11T02:08:09.791Z,3.42
2023-02-11T02:10:41.414Z,3.46
2023-02-11T02:13:08.028Z,3.44
2023-02-11T02:15:37.482Z,3.48
2023-02-11T02:18:39.438Z,3.51
2023-02-11T02:21:43.076Z,3.55
2023-02-11T02:24:24.859Z,3.59
2023-02-11T02:27:19.522Z,3.63
2023-02-11T02:30:14.078Z,3.62
2023-02-11T02:32:46.494Z,3.69
2023-02-11T02:35:13.032Z,3.68
2023-02-11T02:38:18.995Z,3.74
2023-02-11T02:40:52.406Z,3.75
2023-02-11T02:43:20.950Z,3.71
2023-02-11T02:45:47.712Z,3.78
2023-02-11T02:48:27.306Z,3.84
2023-02-11T02:51:15.830Z,3.82
2023-02-11T02:54:13.238Z,3.87
2023-02-11T02:57:25.955Z,3.86
2023-02-11T03:00:11.160Z,3.94
2023-02-11T03:03:05.692Z,4.01
2023-02-11T03:05:49.828Z,4.04
2023-02-11T03:08:40.293Z,4.01
2023-02-11T03:11:10.302Z,4.06
2023-02-11T03:13:39.492Z,4.04
2023-02-11T03:16:13.883Z,4.07
2023-02-11T03:18:44.298Z,4.07
2023-02-11T03:21:12.139Z,4.12
2023-02-11T03:23:53.866Z,4.07
2023-02-11T03:26:32.644Z,4.06
2023-02-11T03:29:17.193Z,4.07
2023-02-11T03:32:17.322Z,4.12
2023-02-11T03:34:58.217Z,4.10
2023-02-11T03:37:45.407Z,4.12
2023-02-11T03:40:20.084Z,4.11
2023-02-11T03:42:53.437Z,4.15
2023-02-11T03:45:22.693Z,4.08
2023-02-11T03:47:55.716Z,4.12
2023-02-11T03:50:24.153Z,4.12
2023-02-11T03:52:51.693Z,4.15
2023-02-11T03:55:21.157Z,4.20
2023-02-11T03:57:48.080Z,4.16
2023-02-11T04:00:15.230Z,4.20
2023-02-11T04:02:42.629Z,4.12
2023-02-11T04:05:11.228Z,4.20
2023-02-11T04:07:37.838Z,4.20
2023-02-11T04:10:04.810Z,4.24
2023-02-11T04:12:31.481Z,4.21
2023-02-11T04:14:58.110Z,4.24
2023-02-11T04:17:24.683Z,4.26
2023-02-11T04:19:51.255Z,4.24
2023-02-11T04:22:17.871Z,4.28
2023-02-11T04:24:44.489Z,4.28
2023-02-11T04:27:11.087Z,4.30
2023-02-11T04:29:37.875Z,4.31
2023-02-11T04:32:04.575Z,4.32
2023-02-11T04:34:31.312Z,4.32
2023-02-11T04:36:57.964Z,4.30
2023-02-11T04:39:24.567Z,4.32
2023-02-11T04:41:51.102Z,4.28
2023-02-11T04:44:17.659Z,4.24
2023-02-11T04:46:44.256Z,4.25
2023-02-11T04:49:15.503Z,4.26
2023-02-11T04:51:42.449Z,4.23
2023-02-11T04:54:08.994Z,4.17
2023-02-11T04:56:35.565Z,4.12
2023-02-11T04:59:02.444Z,4.13
2023-02-11T05:01:29.088Z,4.06
2023-02-11T05:03:55.777Z,3.90
2023-02-11T05:06:22.449Z,3.72
2023-02-11T05:08:49.117Z,3.70
2023-02-11T05:11:21.069Z,3.68
2023-02-11T05:13:48.290Z,3.66
2023-02-11T05:16:15.748Z,3.63
2023-02-11T05:18:43.740Z,3.63
2023-02-11T05:21:16.107Z,3.61
2023-02-11T05:23:43.235Z,3.65
2023-02-11T05:26:10.969Z,3.66
2023-02-11T05:28:38.596Z,3.67
2023-02-11T05:31:05.757Z,3.65
2023-02-11T05:33:32.658Z,3.60
2023-02-11T05:36:00.573Z,3.59
2023-02-11T05:38:27.712Z,3.56
2023-02-11T05:40:54.847Z,3.54
2023-02-11T05:43:21.665Z,3.54
2023-02-11T05:45:48.521Z,3.47
2023-02-11T05:48:15.368Z,3.48
2023-02-11T05:50:42.318Z,3.39
2023-02-11T05:53:09.004Z,3.41
2023-02-11T05:55:35.813Z,3.42
2023-02-11T05:58:02.538Z,3.42
2023-02-11T06:00:29.339Z,3.42
2023-02-11T06:02:56.160Z,3.45
2023-02-11T06:05:22.773Z,3.49
2023-02-11T06:07:49.384Z,3.51
2023-02-11T06:10:18.890Z,3.51
2023-02-11T06:12:45.457Z,3.54
2023-02-11T06:15:12.174Z,3.50
2023-02-11T06:17:38.854Z,3.54
2023-02-11T06:20:08.602Z,3.58
2023-02-11T06:22:35.303Z,3.57
2023-02-11T06:25:02.539Z,3.60
2023-02-11T06:27:29.861Z,3.63
2023-02-11T06:29:56.724Z,3.65
2023-02-11T06:32:46.619Z,3.67
2023-02-11T06:35:12.140Z,3.71
2023-02-11T06:37:39.260Z,3.74
2023-02-11T06:40:06.367Z,3.78
2023-02-11T06:42:33.066Z,3.82
2023-02-11T06:44:59.712Z,3.82
2023-02-11T06:47:26.365Z,3.84
2023-02-11T06:49:52.969Z,3.86
2023-02-11T06:52:19.552Z,3.88
2023-02-11T06:54:46.186Z,3.88
2023-02-11T06:57:12.767Z,3.85
2023-02-11T06:59:39.312Z,3.86
2023-02-11T07:02:05.925Z,3.82
2023-02-11T07:04:32.572Z,3.79
2023-02-11T07:06:59.131Z,3.78
2023-02-11T07:09:25.769Z,3.75
2023-02-11T07:11:52.473Z,3.68
2023-02-11T07:14:19.155Z,3.60
2023-02-11T07:16:45.785Z,3.58
2023-02-11T07:19:12.510Z,3.56
2023-02-11T07:21:39.194Z,3.57
2023-02-11T07:24:11.167Z,3.59
2023-02-11T07:26:38.541Z,3.49
2023-02-11T07:29:05.269Z,3.60
2023-02-11T07:31:32.804Z,3.62
2023-02-11T07:34:01.160Z,3.65
2023-02-11T07:36:29.755Z,3.66
2023-02-11T07:38:56.727Z,3.68
2023-02-11T07:41:25.217Z,3.66
2023-02-11T07:43:52.419Z,3.66
2023-02-11T07:46:25.293Z,3.66
2023-02-11T07:48:52.330Z,3.71
2023-02-11T07:51:25.484Z,3.66
2023-02-11T07:53:52.758Z,3.72
2023-02-11T07:56:20.643Z,3.73
2023-02-11T07:58:47.273Z,3.78
2023-02-11T08:01:19.751Z,3.83
2023-02-11T08:03:46.639Z,3.85
2023-02-11T08:06:17.666Z,3.94
2023-02-11T08:08:44.930Z,3.96
2023-02-11T08:11:15.715Z,3.95
2023-02-11T08:13:42.780Z,4.01
2023-02-11T08:16:16.935Z,4.02
2023-02-11T08:18:43.553Z,4.17
2023-02-11T08:21:10.975Z,4.18
2023-02-11T08:23:38.810Z,4.20
2023-02-11T08:26:08.538Z,4.16
2023-02-11T08:28:36.130Z,4.18
2023-02-11T08:31:11.467Z,4.12
2023-02-11T08:33:40.412Z,4.17
2023-02-11T08:36:18.673Z,4.15
2023-02-11T08:38:45.293Z,4.22
2023-02-11T08:41:14.818Z,4.18
2023-02-11T08:43:42.365Z,4.20
2023-02-11T08:46:12.202Z,4.22
2023-02-11T08:48:38.838Z,4.33
2023-02-11T08:51:27.619Z,4.41
2023-02-11T08:53:55.265Z,4.44
2023-02-11T08:56:25.661Z,4.38
2023-02-11T08:58:53.403Z,4.40
2023-02-11T09:01:23.158Z,4.39
2023-02-11T09:03:49.885Z,4.40
2023-02-11T09:06:18.594Z,4.48
2023-02-11T09:08:49.356Z,4.54
2023-02-11T09:11:17.394Z,4.61
2023-02-11T09:13:44.824Z,4.54
2023-02-11T09:16:20.253Z,4.64
2023-02-11T09:18:47.254Z,4.67
2023-02-11T09:21:15.319Z,4.71
2023-02-11T09:23:44.714Z,4.64
2023-02-11T09:26:15.248Z,4.66
2023-02-11T09:28:41.960Z,4.66
2023-02-11T09:31:11.600Z,4.62
2023-02-11T09:33:40.197Z,4.62
2023-02-11T09:36:07.241Z,4.53
2023-02-11T09:38:34.150Z,4.53
2023-02-11T09:41:04.040Z,4.47
2023-02-11T09:43:44.343Z,4.64
2023-02-11T09:46:16.094Z,4.62
2023-02-11T09:48:46.098Z,4.65
2023-02-11T09:51:23.820Z,4.60
2023-02-11T09:54:00.325Z,4.64
2023-02-11T09:56:28.241Z,4.70
2023-02-11T09:58:54.860Z,4.60
2023-02-11T10:01:33.798Z,4.60
2023-02-11T10:04:20.673Z,4.59
2023-02-11T10:06:50.625Z,4.70
2023-02-11T10:09:35.913Z,4.77
2023-02-11T10:12:25.210Z,4.77
2023-02-11T10:15:10.099Z,4.90
2023-02-11T10:17:49.867Z,5.02
2023-02-11T10:20:28.563Z,4.99
2023-02-11T10:23:01.341Z,4.98
2023-02-11T10:25:35.872Z,4.91
2023-02-11T10:28:15.148Z,4.99
2023-02-11T10:31:15.789Z,4.96
2023-02-11T10:33:56.562Z,4.97
2023-02-11T10:36:29.099Z,5.04
2023-02-11T10:38:55.964Z,5.18
2023-02-11T10:41:34.421Z,5.30
2023-02-11T10:44:01.799Z,5.38
2023-02-11T10:46:34.896Z,5.40
2023-02-11T10:49:03.407Z,5.34
2023-02-11T10:51:34.301Z,5.31
2023-02-11T10:54:03.912Z,5.34
2023-02-11T10:56:34.055Z,5.37
2023-02-11T10:59:04.682Z,5.41
2023-02-11T11:01:40.726Z,5.40
2023-02-11T11:04:34.665Z,5.36
2023-02-11T11:07:23.886Z,5.35
2023-02-11T11:10:00.249Z,5.40
2023-02-11T11:12:32.574Z,5.44
2023-02-11T11:15:04.230Z,5.45
2023-02-11T11:17:30.958Z,5.48
2023-02-11T11:20:22.654Z,5.51
2023-02-11T11:22:51.170Z,5.51
2023-02-11T11:25:29.552Z,5.49
2023-02-11T11:27:59.482Z,5.55
2023-02-11T11:30:34.684Z,5.60
2023-02-11T11:33:01.919Z,5.61
2023-02-11T11:35:32.974Z,5.56
2023-02-11T11:38:03.317Z,5.55
2023-02-11T11:40:32.685Z,5.57
2023-02-11T11:43:23.144Z,5.57
2023-02-11T11:45:58.860Z,5.65
2023-02-11T11:48:35.177Z,5.72
2023-02-11T11:51:05.920Z,5.74
2023-02-11T11:53:38.034Z,5.70
2023-02-11T11:56:09.182Z,5.71
2023-02-11T11:58:35.822Z,5.73
2023-02-11T12:01:19.137Z,5.76
2023-02-11T12:04:10.672Z,5.83
2023-02-11T12:06:51.401Z,5.88
2023-02-11T12:09:39.767Z,5.81
2023-02-11T12:12:32.563Z,5.77
2023-02-11T12:15:23.650Z,5.76
2023-02-11T12:18:15.830Z,5.71
2023-02-11T12:20:51.922Z,5.68
2023-02-11T12:23:42.518Z,5.64
2023-02-11T12:26:15.094Z,5.70
2023-02-11T12:29:02.129Z,5.66
2023-02-11T12:31:56.619Z,5.71
2023-02-11T12:34:52.108Z,5.59
2023-02-11T12:37:24.702Z,5.47
2023-02-11T12:39:54.635Z,5.55
2023-02-11T12:43:04.409Z,5.47
2023-02-11T12:45:52.401Z,5.48
2023-02-11T12:48:56.999Z,5.45
2023-02-11T12:51:32.814Z,5.44
2023-02-11T12:54:18.177Z,5.44
2023-02-11T12:56:55.827Z,5.42
2023-02-11T12:59:56.553Z,5.43
2023-02-11T13:02:41.894Z,5.41
2023-02-11T13:05:23.289Z,5.40
2023-02-11T13:07:53.045Z,5.41
2023-02-11T13:10:26.056Z,5.43
2023-02-11T13:13:14.608Z,5.42
2023-02-11T13:15:44.055Z,5.46
2023-02-11T13:18:39.006Z,5.47
2023-02-11T13:21:11.603Z,5.48
2023-02-11T13:23:50.839Z,5.51
2023-02-11T13:26:46.197Z,5.52
2023-02-11T13:29:15.687Z,5.54
2023-02-11T13:31:42.336Z,5.59
2023-02-11T13:34:24.928Z,5.53
2023-02-11T13:36:56.560Z,5.64
2023-02-11T13:39:23.627Z,5.66
2023-02-11T13:41:52.920Z,5.75
2023-02-11T13:44:23.664Z,5.75
2023-02-11T13:47:02.457Z,5.75
2023-02-11T13:49:49.145Z,5.70
2023-02-11T13:52:25.180Z,5.65
2023-02-11T13:54:54.223Z,5.67
2023-02-11T13:57:20.811Z,5.69
2023-02-11T13:59:53.363Z,5.67
2023-02-11T14:02:44.705Z,5.68
2023-02-11T14:05:45.274Z,5.64
2023-02-11T14:08:30.033Z,5.59
2023-02-11T14:11:21.008Z,5.60
2023-02-11T14:13:47.579Z,5.65
2023-02-11T14:16:36.522Z,5.63
2023-02-11T14:19:06.345Z,5.66
2023-02-11T14:21:47.383Z,5.65
2023-02-11T14:24:14.379Z,5.66
2023-02-11T14:26:51.726Z,5.68
2023-02-11T14:29:42.543Z,5.63
2023-02-11T14:32:24.191Z,5.70
2023-02-11T14:35:05.140Z,5.73
2023-02-11T14:37:37.917Z,5.72
2023-02-11T14:40:10.530Z,5.70
2023-02-11T14:42:38.767Z,5.71
2023-02-11T14:45:09.186Z,5.75
2023-02-11T14:47:46.903Z,5.73
2023-02-11T14:50:19.311Z,5.75
2023-02-11T14:52:46.406Z,5.72
2023-02-11T14:55:29.783Z,5.74
2023-02-11T14:58:27.438Z,5.70
2023-02-11T15:01:00.893Z,5.73
2023-02-11T15:03:35.617Z,5.70
2023-02-11T15:06:14.674Z,5.77
2023-02-11T15:08:45.807Z,5.74
2023-02-11T15:11:15.908Z,5.77
2023-02-11T15:13:49.810Z,5.76
2023-02-11T15:16:21.604Z,5.76
2023-02-11T15:18:51.941Z,5.74
2023-02-11T15:21:45.755Z,5.77
2023-02-11T15:24:27.888Z,5.77
2023-02-11T15:26:58.318Z,5.78
2023-02-11T15:29:27.788Z,5.78
2023-02-11T15:32:18.434Z,5.85
2023-02-11T15:34:46.705Z,5.87
2023-02-11T15:37:24.608Z,5.87
2023-02-11T15:39:52.480Z,5.85
2023-02-11T15:42:28.133Z,5.83
2023-02-11T15:45:16.514Z,5.87
2023-02-11T15:47:50.754Z,5.82
2023-02-11T15:50:21.750Z,5.79
2023-02-11T15:52:49.799Z,5.78
2023-02-11T15:55:18.016Z,5.75
2023-02-11T15:58:00.866Z,5.65
2023-02-11T16:00:35.953Z,5.58
2023-02-11T16:03:03.113Z,5.54
2023-02-11T16:05:31.766Z,5.53
2023-02-11T16:07:59.898Z,5.53
2023-02-11T16:10:34.405Z,5.52
2023-02-11T16:13:07.175Z,5.50
2023-02-11T16:15:33.867Z,5.43
2023-02-11T16:18:03.237Z,5.41
2023-02-11T16:20:30.340Z,5.35
2023-02-11T16:22:57.149Z,5.32
2023-02-11T16:25:24.072Z,5.32
2023-02-11T16:27:54.651Z,5.31
2023-02-11T16:30:28.687Z,5.28
2023-02-11T16:32:55.251Z,5.27
2023-02-11T16:35:21.927Z,5.25
2023-02-11T16:37:48.692Z,5.18
2023-02-11T16:40:15.563Z,5.12
2023-02-11T16:42:42.264Z,5.04
2023-02-11T16:45:09.525Z,5.00
2023-02-11T16:47:40.895Z,4.93
2023-02-11T16:50:18.959Z,4.96
2023-02-11T16:52:46.369Z,4.88
2023-02-11T16:55:13.258Z,4.85
2023-02-11T16:57:40.158Z,4.79
2023-02-11T17:00:07.791Z,4.80
2023-02-11T17:02:37.184Z,4.74
2023-02-11T17:05:07.423Z,4.70
2023-02-11T17:07:34.312Z,4.64
2023-02-11T17:10:00.985Z,4.67
2023-02-11T17:12:27.675Z,4.65
2023-02-11T17:14:54.645Z,4.66
2023-02-11T17:17:23.614Z,4.64
2023-02-11T17:19:51.218Z,4.68
2023-02-11T17:22:18.717Z,4.74
2023-02-11T17:24:45.512Z,4.75
2023-02-11T17:27:12.811Z,4.78
2023-02-11T17:29:39.442Z,4.80
2023-02-11T17:32:06.525Z,4.90
2023-02-11T17:34:33.215Z,4.90
2023-02-11T17:37:00.313Z,4.94
2023-02-11T17:39:27.636Z,5.01
2023-02-11T17:41:54.195Z,5.02
2023-02-11T17:44:21.057Z,5.02
2023-02-11T17:46:47.757Z,5.09
2023-02-11T17:49:14.637Z,5.10
2023-02-11T17:51:41.369Z,5.12
2023-02-11T17:54:13.681Z,5.09
2023-02-11T17:56:41.471Z,5.14
2023-02-11T17:59:09.791Z,5.14
2023-02-11T18:01:38.006Z,5.16
2023-02-11T18:04:06.095Z,5.13
2023-02-11T18:06:36.259Z,5.17
2023-02-11T18:09:04.465Z,5.17
2023-02-11T18:11:32.931Z,5.18
2023-02-11T18:14:00.573Z,5.16
2023-02-11T18:16:28.959Z,5.15
2023-02-11T18:18:57.449Z,5.13
2023-02-11T18:21:24.753Z,5.08
2023-02-11T18:23:51.970Z,5.17
2023-02-11T18:26:20.837Z,5.10
2023-02-11T18:28:47.581Z,5.09
2023-02-11T18:31:15.005Z,5.15
2023-02-11T18:33:42.692Z,5.10
2023-02-11T18:36:12.694Z,5.11
2023-02-11T18:38:39.672Z,5.13
2023-02-11T18:41:07.356Z,5.06
2023-02-11T18:43:34.609Z,5.04
2023-02-11T18:46:02.966Z,5.05
2023-02-11T18:48:29.738Z,5.14
2023-02-11T18:50:56.727Z,5.10
2023-02-11T18:53:24.710Z,5.19
2023-02-11T18:55:52.773Z,5.12
2023-02-11T18:58:21.354Z,5.18
2023-02-11T19:00:49.851Z,5.22
2023-02-11T19:03:16.680Z,5.09
2023-02-11T19:05:48.536Z,5.16
2023-02-11T19:08:15.477Z,5.15
2023-02-11T19:10:44.202Z,5.13
2023-02-11T19:13:11.057Z,5.16
2023-02-11T19:15:45.710Z,5.14
2023-02-11T19:18:16.315Z,5.16
2023-02-11T19:20:43.768Z,5.16
2023-02-11T19:23:11.381Z,5.16
2023-02-11T19:25:44.329Z,5.16
2023-02-11T19:28:10.978Z,5.21
2023-02-11T19:30:37.699Z,5.27
2023-02-11T19:33:04.386Z,5.24
2023-02-11T19:35:35.316Z,5.24
2023-02-11T19:38:03.314Z,5.23
2023-02-11T19:40:30.171Z,5.10
2023-02-11T19:42:56.800Z,5.25
2023-02-11T19:45:23.432Z,5.15
2023-02-11T19:47:55.062Z,5.28
2023-02-11T19:50:21.853Z,5.25
2023-02-11T19:52:48.436Z,5.14
2023-02-11T19:55:15.074Z,5.12
2023-02-11T19:57:41.631Z,5.10
2023-02-11T20:00:09.809Z,5.14
2023-02-11T20:02:38.083Z,5.29
2023-02-11T20:05:04.952Z,5.25
2023-02-11T20:07:31.668Z,5.25
2023-02-11T20:09:58.301Z,5.30
2023-02-11T20:12:24.918Z,5.26
2023-02-11T20:14:51.468Z,5.27
2023-02-11T20:17:18.039Z,5.29
2023-02-11T20:19:44.678Z,5.13
2023-02-11T20:22:11.236Z,5.15
2023-02-11T20:24:37.881Z,5.26
2023-02-11T20:27:08.267Z,5.12
2023-02-11T20:29:34.906Z,5.23
2023-02-11T20:32:02.959Z,5.16
2023-02-11T20:34:29.696Z,5.16
2023-02-11T20:36:56.483Z,5.15
2023-02-11T20:39:24.416Z,5.07
2023-02-11T20:41:51.874Z,5.14
2023-02-11T20:44:18.847Z,5.20
2023-02-11T20:46:48.864Z,5.25
2023-02-11T20:49:19.410Z,5.20
2023-02-11T20:51:46.484Z,5.22
2023-02-11T20:54:15.558Z,5.27
2023-02-11T20:56:42.375Z,5.25
2023-02-11T20:59:09.294Z,5.30
2023-02-11T21:01:42.731Z,5.31
2023-02-11T21:04:18.489Z,5.43
2023-02-11T21:06:47.872Z,5.34
2023-02-11T21:09:19.659Z,5.43
2023-02-11T21:11:47.633Z,5.46
2023-02-11T21:14:14.898Z,5.49
2023-02-11T21:16:41.676Z,5.56
2023-02-11T21:19:08.520Z,5.52
2023-02-11T21:21:36.874Z,5.55
2023-02-11T21:24:04.270Z,5.60
2023-02-11T21:26:30.977Z,5.50
2023-02-11T21:28:57.838Z,5.57
2023-02-11T21:31:33.113Z,5.55
2023-02-11T21:34:00.150Z,5.58
2023-02-11T21:36:28.619Z,5.58
2023-02-11T21:38:55.253Z,5.61
2023-02-11T21:41:22.869Z,5.57
2023-02-11T21:43:50.741Z,5.50
2023-02-11T21:46:20.945Z,5.53
2023-02-11T21:48:48.106Z,5.63
2023-02-11T21:51:26.070Z,5.55
2023-02-11T21:53:54.705Z,5.53
2023-02-11T21:56:21.450Z,5.58
2023-02-11T21:58:53.455Z,5.42
2023-02-11T22:01:25.971Z,5.48
2023-02-11T22:03:52.728Z,5.49
2023-02-11T22:06:26.116Z,5.55
2023-02-11T22:08:54.041Z,5.51
2023-02-11T22:11:21.219Z,5.50
2023-02-11T22:13:48.273Z,5.43
2023-02-11T22:16:16.873Z,5.45
2023-02-11T22:18:46.521Z,5.42
2023-02-11T22:21:16.972Z,5.44
2023-02-11T22:23:44.004Z,5.46
2023-02-11T22:26:16.271Z,5.50
2023-02-11T22:28:43.390Z,5.56
2023-02-11T22:31:15.712Z,5.55
2023-02-11T22:33:42.982Z,5.55
2023-02-11T22:36:16.743Z,5.54
2023-02-11T22:38:43.524Z,5.66
2023-02-11T22:41:11.929Z,5.70
2023-02-11T22:43:39.376Z,5.67
2023-02-11T22:46:07.469Z,5.69
2023-02-11T22:48:35.342Z,5.67
2023-02-11T22:51:13.631Z,5.65
2023-02-11T22:53:40.512Z,5.72
2023-02-11T22:56:15.045Z,5.68
2023-02-11T22:58:42.052Z,5.69
2023-02-11T23:01:08.689Z,5.71
2023-02-11T23:03:35.758Z,5.73
2023-02-11T23:06:02.996Z,5.78
2023-02-11T23:08:30.649Z,5.71
2023-02-11T23:11:03.669Z,5.69
2023-02-11T23:13:30.479Z,5.73
2023-02-11T23:15:57.308Z,5.75
2023-02-11T23:18:25.253Z,5.82
2023-02-11T23:20:56.374Z,5.77
2023-02-11T23:23:23.048Z,5.79
2023-02-11T23:25:49.625Z,5.74
2023-02-11T23:28:16.334Z,5.78
2023-02-11T23:30:43.026Z,5.86
2023-02-11T23:33:09.725Z,5.84
2023-02-11T23:35:36.667Z,5.85
2023-02-11T23:38:03.531Z,5.85
2023-02-11T23:40:33.141Z,5.87
2023-02-11T23:42:59.670Z,5.89
2023-02-11T23:45:26.380Z,5.88
2023-02-11T23:47:53.203Z,5.85
2023-02-11T23:50:19.983Z,5.91
2023-02-11T23:52:46.614Z,5.85
2023-02-11T23:55:16.500Z,5.93
2023-02-11T23:57:43.136Z,5.85
